sensor_id;sensor_type;location;lat;lon;timestamp;P1;durP1;ratioP1;P2;durP2;ratioP2
21418;SDS011;10870;51.384;10.316;2022-11-23T00:00:50;11.88;;;6.00;;
21418;SDS011;10870;51.384;10.316;2022-11-23T00:02:55;14.77;;;6.22;;
21418;SDS011;10870;51.384;10.316;2022-11-23T00:04:57;9.27;;;5.82;;
21418;SDS011;10870;51.384;10.316;2022-11-23T00:06:58;13.75;;;6.30;;
21418;SDS011;10870;51.384;10.316;2022-11-23T00:09:00;12.52;;;5.82;;
21418;SDS011;10870;51.384;10.316;2022-11-23T00:11:01;15.07;;;6.85;;
21418;SDS011;10870;51.384;10.316;2022-11-23T00:13:02;13.63;;;6.25;;
21418;SDS011;10870;51.384;10.316;2022-11-23T00:15:04;9.95;;;5.78;;
21418;SDS011;10870;51.384;10.316;2022-11-23T00:17:06;13.10;;;6.70;;
21418;SDS011;10870;51.384;10.316;2022-11-23T00:19:07;11.90;;;6.10;;
21418;SDS011;10870;51.384;10.316;2022-11-23T00:21:13;11.25;;;6.05;;
21418;SDS011;10870;51.384;10.316;2022-11-23T00:23:14;11.90;;;6.32;;
21418;SDS011;10870;51.384;10.316;2022-11-23T00:25:16;9.82;;;5.53;;
21418;SDS011;10870;51.384;10.316;2022-11-23T00:27:17;11.68;;;5.93;;
21418;SDS011;10870;51.384;10.316;2022-11-23T00:29:18;9.85;;;5.78;;
21418;SDS011;10870;51.384;10.316;2022-11-23T00:31:20;12.90;;;6.35;;
21418;SDS011;10870;51.384;10.316;2022-11-23T00:33:21;14.98;;;6.68;;
21418;SDS011;10870;51.384;10.316;2022-11-23T00:35:23;12.30;;;6.15;;
21418;SDS011;10870;51.384;10.316;2022-11-23T00:37:24;12.15;;;6.20;;
21418;SDS011;10870;51.384;10.316;2022-11-23T00:39:25;15.20;;;6.53;;
21418;SDS011;10870;51.384;10.316;2022-11-23T00:41:27;11.70;;;5.65;;
21418;SDS011;10870;51.384;10.316;2022-11-23T00:43:28;9.25;;;5.57;;
21418;SDS011;10870;51.384;10.316;2022-11-23T00:45:30;12.23;;;5.90;;
21418;SDS011;10870;51.384;10.316;2022-11-23T00:47:31;15.88;;;6.65;;
21418;SDS011;10870;51.384;10.316;2022-11-23T00:49:35;12.23;;;6.05;;
21418;SDS011;10870;51.384;10.316;2022-11-23T00:51:36;13.85;;;5.85;;
21418;SDS011;10870;51.384;10.316;2022-11-23T00:53:38;10.98;;;5.75;;
21418;SDS011;10870;51.384;10.316;2022-11-23T00:55:39;7.93;;;5.30;;
21418;SDS011;10870;51.384;10.316;2022-11-23T00:57:40;16.52;;;5.38;;
21418;SDS011;10870;51.384;10.316;2022-11-23T00:59:42;15.77;;;6.68;;
21418;SDS011;10870;51.384;10.316;2022-11-23T01:01:43;11.60;;;5.00;;
21418;SDS011;10870;51.384;10.316;2022-11-23T01:03:48;9.25;;;4.88;;
21418;SDS011;10870;51.384;10.316;2022-11-23T01:05:50;10.18;;;5.10;;
21418;SDS011;10870;51.384;10.316;2022-11-23T01:07:54;13.00;;;5.57;;
21418;SDS011;10870;51.384;10.316;2022-11-23T01:09:56;12.98;;;5.20;;
21418;SDS011;10870;51.384;10.316;2022-11-23T01:11:57;11.30;;;5.30;;
21418;SDS011;10870;51.384;10.316;2022-11-23T01:13:59;10.25;;;4.50;;
21418;SDS011;10870;51.384;10.316;2022-11-23T01:16:01;8.98;;;4.97;;
21418;SDS011;10870;51.384;10.316;2022-11-23T01:18:02;10.18;;;4.70;;
21418;SDS011;10870;51.384;10.316;2022-11-23T01:20:04;10.25;;;4.78;;
21418;SDS011;10870;51.384;10.316;2022-11-23T01:22:05;12.52;;;5.22;;
21418;SDS011;10870;51.384;10.316;2022-11-23T01:24:08;9.25;;;5.10;;
21418;SDS011;10870;51.384;10.316;2022-11-23T01:26:09;12.38;;;4.80;;
21418;SDS011;10870;51.384;10.316;2022-11-23T01:28:11;9.45;;;5.03;;
21418;SDS011;10870;51.384;10.316;2022-11-23T01:30:12;12.95;;;4.78;;
21418;SDS011;10870;51.384;10.316;2022-11-23T01:32:14;11.75;;;5.47;;
21418;SDS011;10870;51.384;10.316;2022-11-23T01:34:15;13.65;;;6.50;;
21418;SDS011;10870;51.384;10.316;2022-11-23T01:36:18;18.23;;;8.07;;
21418;SDS011;10870;51.384;10.316;2022-11-23T01:38:20;19.42;;;8.50;;
21418;SDS011;10870;51.384;10.316;2022-11-23T01:40:22;19.23;;;8.88;;
21418;SDS011;10870;51.384;10.316;2022-11-23T01:42:36;18.90;;;9.65;;
21418;SDS011;10870;51.384;10.316;2022-11-23T01:44:42;15.45;;;8.15;;
21418;SDS011;10870;51.384;10.316;2022-11-23T01:46:43;18.15;;;8.38;;
21418;SDS011;10870;51.384;10.316;2022-11-23T01:50:47;9.43;;;5.85;;
21418;SDS011;10870;51.384;10.316;2022-11-23T01:52:50;9.52;;;5.68;;
21418;SDS011;10870;51.384;10.316;2022-11-23T01:54:52;12.38;;;5.07;;
21418;SDS011;10870;51.384;10.316;2022-11-23T01:56:57;10.52;;;4.13;;
21418;SDS011;10870;51.384;10.316;2022-11-23T01:59:01;13.02;;;6.30;;
21418;SDS011;10870;51.384;10.316;2022-11-23T02:01:03;8.70;;;4.97;;
21418;SDS011;10870;51.384;10.316;2022-11-23T02:03:04;10.85;;;5.40;;
21418;SDS011;10870;51.384;10.316;2022-11-23T02:05:09;9.18;;;5.30;;
21418;SDS011;10870;51.384;10.316;2022-11-23T02:07:11;9.90;;;4.97;;
21418;SDS011;10870;51.384;10.316;2022-11-23T02:09:15;10.80;;;4.97;;
21418;SDS011;10870;51.384;10.316;2022-11-23T02:11:17;13.85;;;4.72;;
21418;SDS011;10870;51.384;10.316;2022-11-23T02:13:18;12.00;;;5.05;;
21418;SDS011;10870;51.384;10.316;2022-11-23T02:15:20;11.93;;;4.78;;
21418;SDS011;10870;51.384;10.316;2022-11-23T02:17:21;8.27;;;4.65;;
21418;SDS011;10870;51.384;10.316;2022-11-23T02:19:30;10.43;;;4.40;;
21418;SDS011;10870;51.384;10.316;2022-11-23T02:21:38;11.18;;;4.93;;
21418;SDS011;10870;51.384;10.316;2022-11-23T02:25:58;9.23;;;5.25;;
21418;SDS011;10870;51.384;10.316;2022-11-23T02:28:00;12.07;;;4.55;;
21418;SDS011;10870;51.384;10.316;2022-11-23T02:30:02;9.98;;;3.97;;
21418;SDS011;10870;51.384;10.316;2022-11-23T02:32:04;9.40;;;4.55;;
21418;SDS011;10870;51.384;10.316;2022-11-23T02:34:05;10.80;;;4.53;;
21418;SDS011;10870;51.384;10.316;2022-11-23T02:38:29;13.70;;;4.35;;
21418;SDS011;10870;51.384;10.316;2022-11-23T02:40:33;10.30;;;3.92;;
21418;SDS011;10870;51.384;10.316;2022-11-23T02:42:35;12.45;;;4.32;;
21418;SDS011;10870;51.384;10.316;2022-11-23T02:44:42;9.00;;;3.78;;
21418;SDS011;10870;51.384;10.316;2022-11-23T02:46:46;8.10;;;3.38;;
21418;SDS011;10870;51.384;10.316;2022-11-23T02:48:47;8.93;;;4.00;;
21418;SDS011;10870;51.384;10.316;2022-11-23T02:50:51;10.38;;;4.07;;
21418;SDS011;10870;51.384;10.316;2022-11-23T02:52:55;8.82;;;4.03;;
21418;SDS011;10870;51.384;10.316;2022-11-23T02:54:56;10.52;;;3.40;;
21418;SDS011;10870;51.384;10.316;2022-11-23T02:57:02;13.75;;;4.63;;
21418;SDS011;10870;51.384;10.316;2022-11-23T02:59:06;15.38;;;4.45;;
21418;SDS011;10870;51.384;10.316;2022-11-23T03:01:08;11.43;;;4.10;;
21418;SDS011;10870;51.384;10.316;2022-11-23T03:03:09;13.15;;;4.28;;
21418;SDS011;10870;51.384;10.316;2022-11-23T03:05:10;13.18;;;4.47;;
21418;SDS011;10870;51.384;10.316;2022-11-23T03:07:14;11.77;;;4.20;;
21418;SDS011;10870;51.384;10.316;2022-11-23T03:09:18;11.30;;;3.75;;
21418;SDS011;10870;51.384;10.316;2022-11-23T03:11:21;11.13;;;4.55;;
21418;SDS011;10870;51.384;10.316;2022-11-23T03:13:23;13.32;;;4.65;;
21418;SDS011;10870;51.384;10.316;2022-11-23T03:15:27;14.82;;;4.00;;
21418;SDS011;10870;51.384;10.316;2022-11-23T03:17:29;11.68;;;3.80;;
21418;SDS011;10870;51.384;10.316;2022-11-23T03:19:30;10.32;;;4.18;;
21418;SDS011;10870;51.384;10.316;2022-11-23T03:21:32;10.85;;;4.30;;
21418;SDS011;10870;51.384;10.316;2022-11-23T03:23:33;8.77;;;3.97;;
21418;SDS011;10870;51.384;10.316;2022-11-23T03:25:37;9.95;;;3.50;;
21418;SDS011;10870;51.384;10.316;2022-11-23T03:27:43;9.90;;;3.83;;
21418;SDS011;10870;51.384;10.316;2022-11-23T03:29:50;10.20;;;3.53;;
21418;SDS011;10870;51.384;10.316;2022-11-23T03:31:52;9.10;;;3.90;;
21418;SDS011;10870;51.384;10.316;2022-11-23T03:33:53;17.20;;;4.18;;
21418;SDS011;10870;51.384;10.316;2022-11-23T03:35:54;9.85;;;3.38;;
21418;SDS011;10870;51.384;10.316;2022-11-23T03:37:56;12.32;;;3.83;;
21418;SDS011;10870;51.384;10.316;2022-11-23T03:39:57;12.02;;;4.03;;
21418;SDS011;10870;51.384;10.316;2022-11-23T03:41:58;14.52;;;3.85;;
21418;SDS011;10870;51.384;10.316;2022-11-23T03:44:04;12.65;;;4.00;;
21418;SDS011;10870;51.384;10.316;2022-11-23T03:46:10;8.52;;;3.70;;
21418;SDS011;10870;51.384;10.316;2022-11-23T03:48:14;9.95;;;3.85;;
21418;SDS011;10870;51.384;10.316;2022-11-23T03:50:18;9.82;;;4.47;;
21418;SDS011;10870;51.384;10.316;2022-11-23T03:52:19;9.98;;;3.65;;
21418;SDS011;10870;51.384;10.316;2022-11-23T03:54:20;13.25;;;4.45;;
21418;SDS011;10870;51.384;10.316;2022-11-23T03:56:21;15.35;;;4.20;;
21418;SDS011;10870;51.384;10.316;2022-11-23T03:58:23;7.13;;;3.40;;
21418;SDS011;10870;51.384;10.316;2022-11-23T04:00:25;13.73;;;4.03;;
21418;SDS011;10870;51.384;10.316;2022-11-23T04:02:29;12.23;;;4.18;;
21418;SDS011;10870;51.384;10.316;2022-11-23T04:04:30;10.65;;;4.07;;
21418;SDS011;10870;51.384;10.316;2022-11-23T04:06:34;13.02;;;4.35;;
21418;SDS011;10870;51.384;10.316;2022-11-23T04:08:38;11.68;;;3.40;;
21418;SDS011;10870;51.384;10.316;2022-11-23T04:10:42;12.38;;;4.68;;
21418;SDS011;10870;51.384;10.316;2022-11-23T04:12:43;10.63;;;4.25;;
21418;SDS011;10870;51.384;10.316;2022-11-23T04:17:11;17.80;;;4.90;;
21418;SDS011;10870;51.384;10.316;2022-11-23T04:19:12;11.88;;;5.25;;
21418;SDS011;10870;51.384;10.316;2022-11-23T04:21:16;8.98;;;4.00;;
21418;SDS011;10870;51.384;10.316;2022-11-23T04:23:17;15.55;;;4.85;;
21418;SDS011;10870;51.384;10.316;2022-11-23T04:25:18;11.20;;;4.57;;
21418;SDS011;10870;51.384;10.316;2022-11-23T04:27:22;14.95;;;4.28;;
21418;SDS011;10870;51.384;10.316;2022-11-23T04:29:25;11.38;;;5.05;;
21418;SDS011;10870;51.384;10.316;2022-11-23T04:31:29;14.98;;;5.00;;
21418;SDS011;10870;51.384;10.316;2022-11-23T04:33:30;14.32;;;5.25;;
21418;SDS011;10870;51.384;10.316;2022-11-23T04:35:31;12.52;;;6.50;;
21418;SDS011;10870;51.384;10.316;2022-11-23T04:37:33;13.55;;;4.95;;
21418;SDS011;10870;51.384;10.316;2022-11-23T04:39:34;12.18;;;4.50;;
21418;SDS011;10870;51.384;10.316;2022-11-23T04:41:35;10.93;;;4.80;;
21418;SDS011;10870;51.384;10.316;2022-11-23T04:43:42;15.90;;;5.55;;
21418;SDS011;10870;51.384;10.316;2022-11-23T04:45:43;11.85;;;5.03;;
21418;SDS011;10870;51.384;10.316;2022-11-23T04:47:47;12.00;;;4.85;;
21418;SDS011;10870;51.384;10.316;2022-11-23T04:49:50;14.25;;;4.78;;
21418;SDS011;10870;51.384;10.316;2022-11-23T04:51:51;12.30;;;5.20;;
21418;SDS011;10870;51.384;10.316;2022-11-23T04:53:52;13.57;;;5.13;;
21418;SDS011;10870;51.384;10.316;2022-11-23T04:55:56;17.70;;;4.95;;
21418;SDS011;10870;51.384;10.316;2022-11-23T04:57:59;11.52;;;4.97;;
21418;SDS011;10870;51.384;10.316;2022-11-23T05:00:02;12.15;;;5.15;;
21418;SDS011;10870;51.384;10.316;2022-11-23T05:02:05;10.07;;;4.45;;
21418;SDS011;10870;51.384;10.316;2022-11-23T05:04:07;18.58;;;5.60;;
21418;SDS011;10870;51.384;10.316;2022-11-23T05:06:08;9.98;;;4.47;;
21418;SDS011;10870;51.384;10.316;2022-11-23T05:08:09;12.52;;;5.00;;
21418;SDS011;10870;51.384;10.316;2022-11-23T05:10:11;10.95;;;4.78;;
21418;SDS011;10870;51.384;10.316;2022-11-23T05:12:12;13.85;;;4.68;;
21418;SDS011;10870;51.384;10.316;2022-11-23T05:14:13;16.73;;;4.45;;
21418;SDS011;10870;51.384;10.316;2022-11-23T05:16:15;13.25;;;4.78;;
21418;SDS011;10870;51.384;10.316;2022-11-23T05:18:19;13.68;;;4.93;;
21418;SDS011;10870;51.384;10.316;2022-11-23T05:20:20;12.27;;;4.00;;
21418;SDS011;10870;51.384;10.316;2022-11-23T05:22:21;12.50;;;5.15;;
21418;SDS011;10870;51.384;10.316;2022-11-23T05:24:28;10.98;;;4.50;;
21418;SDS011;10870;51.384;10.316;2022-11-23T05:26:29;9.45;;;4.90;;
21418;SDS011;10870;51.384;10.316;2022-11-23T05:28:30;12.52;;;4.68;;
21418;SDS011;10870;51.384;10.316;2022-11-23T05:30:32;11.20;;;5.85;;
21418;SDS011;10870;51.384;10.316;2022-11-23T05:32:33;18.65;;;5.82;;
21418;SDS011;10870;51.384;10.316;2022-11-23T05:34:34;17.67;;;6.32;;
21418;SDS011;10870;51.384;10.316;2022-11-23T05:36:35;12.32;;;5.18;;
21418;SDS011;10870;51.384;10.316;2022-11-23T05:38:37;11.68;;;4.90;;
21418;SDS011;10870;51.384;10.316;2022-11-23T05:40:41;12.48;;;5.18;;
21418;SDS011;10870;51.384;10.316;2022-11-23T05:42:45;18.27;;;6.22;;
21418;SDS011;10870;51.384;10.316;2022-11-23T05:44:46;14.77;;;5.78;;
21418;SDS011;10870;51.384;10.316;2022-11-23T05:46:47;14.77;;;4.75;;
21418;SDS011;10870;51.384;10.316;2022-11-23T05:48:49;12.05;;;4.40;;
21418;SDS011;10870;51.384;10.316;2022-11-23T05:50:52;17.50;;;4.88;;
21418;SDS011;10870;51.384;10.316;2022-11-23T05:52:56;18.75;;;5.65;;
21418;SDS011;10870;51.384;10.316;2022-11-23T05:55:00;13.43;;;6.53;;
21418;SDS011;10870;51.384;10.316;2022-11-23T05:57:01;14.82;;;4.65;;
21418;SDS011;10870;51.384;10.316;2022-11-23T05:59:02;13.73;;;5.38;;
21418;SDS011;10870;51.384;10.316;2022-11-23T06:01:04;15.27;;;6.03;;
21418;SDS011;10870;51.384;10.316;2022-11-23T06:03:08;11.93;;;4.85;;
21418;SDS011;10870;51.384;10.316;2022-11-23T06:05:12;8.32;;;4.80;;
21418;SDS011;10870;51.384;10.316;2022-11-23T06:07:13;13.00;;;5.50;;
21418;SDS011;10870;51.384;10.316;2022-11-23T06:09:14;9.38;;;5.32;;
21418;SDS011;10870;51.384;10.316;2022-11-23T06:11:16;14.30;;;5.47;;
21418;SDS011;10870;51.384;10.316;2022-11-23T06:13:17;13.82;;;5.82;;
21418;SDS011;10870;51.384;10.316;2022-11-23T06:15:18;11.93;;;4.97;;
21418;SDS011;10870;51.384;10.316;2022-11-23T06:17:23;11.23;;;4.43;;
21418;SDS011;10870;51.384;10.316;2022-11-23T06:19:29;10.55;;;4.63;;
21418;SDS011;10870;51.384;10.316;2022-11-23T06:21:30;13.55;;;4.82;;
21418;SDS011;10870;51.384;10.316;2022-11-23T06:23:31;13.23;;;4.53;;
21418;SDS011;10870;51.384;10.316;2022-11-23T06:25:35;12.10;;;4.90;;
21418;SDS011;10870;51.384;10.316;2022-11-23T06:27:38;13.18;;;4.78;;
21418;SDS011;10870;51.384;10.316;2022-11-23T06:29:39;11.85;;;5.15;;
21418;SDS011;10870;51.384;10.316;2022-11-23T06:31:41;15.30;;;5.70;;
21418;SDS011;10870;51.384;10.316;2022-11-23T06:33:45;13.07;;;5.53;;
21418;SDS011;10870;51.384;10.316;2022-11-23T06:35:53;13.65;;;5.60;;
21418;SDS011;10870;51.384;10.316;2022-11-23T06:37:58;11.48;;;5.20;;
21418;SDS011;10870;51.384;10.316;2022-11-23T06:40:00;15.82;;;6.05;;
21418;SDS011;10870;51.384;10.316;2022-11-23T06:42:01;9.80;;;5.00;;
21418;SDS011;10870;51.384;10.316;2022-11-23T06:44:05;16.38;;;5.85;;
21418;SDS011;10870;51.384;10.316;2022-11-23T06:46:09;17.17;;;5.60;;
21418;SDS011;10870;51.384;10.316;2022-11-23T06:48:14;18.75;;;6.18;;
21418;SDS011;10870;51.384;10.316;2022-11-23T06:50:20;12.80;;;6.20;;
21418;SDS011;10870;51.384;10.316;2022-11-23T06:52:22;18.58;;;5.90;;
21418;SDS011;10870;51.384;10.316;2022-11-23T06:54:25;13.60;;;5.20;;
21418;SDS011;10870;51.384;10.316;2022-11-23T06:56:27;20.58;;;6.97;;
21418;SDS011;10870;51.384;10.316;2022-11-23T06:58:28;19.38;;;6.97;;
21418;SDS011;10870;51.384;10.316;2022-11-23T07:00:29;23.20;;;7.80;;
21418;SDS011;10870;51.384;10.316;2022-11-23T07:02:31;19.70;;;7.47;;
21418;SDS011;10870;51.384;10.316;2022-11-23T07:04:32;13.13;;;6.85;;
21418;SDS011;10870;51.384;10.316;2022-11-23T07:06:33;17.23;;;8.18;;
21418;SDS011;10870;51.384;10.316;2022-11-23T07:08:35;18.52;;;7.90;;
21418;SDS011;10870;51.384;10.316;2022-11-23T07:10:42;15.20;;;7.53;;
21418;SDS011;10870;51.384;10.316;2022-11-23T07:12:43;19.80;;;8.52;;
21418;SDS011;10870;51.384;10.316;2022-11-23T07:14:45;16.13;;;6.70;;
21418;SDS011;10870;51.384;10.316;2022-11-23T07:16:46;14.45;;;6.68;;
21418;SDS011;10870;51.384;10.316;2022-11-23T07:18:47;24.05;;;10.75;;
21418;SDS011;10870;51.384;10.316;2022-11-23T07:20:51;25.45;;;10.82;;
21418;SDS011;10870;51.384;10.316;2022-11-23T07:23:05;23.75;;;8.63;;
21418;SDS011;10870;51.384;10.316;2022-11-23T07:25:07;14.00;;;7.63;;
21418;SDS011;10870;51.384;10.316;2022-11-23T07:27:10;15.98;;;7.90;;
21418;SDS011;10870;51.384;10.316;2022-11-23T07:29:12;12.55;;;7.40;;
21418;SDS011;10870;51.384;10.316;2022-11-23T07:31:15;18.08;;;8.43;;
21418;SDS011;10870;51.384;10.316;2022-11-23T07:33:17;17.75;;;7.88;;
21418;SDS011;10870;51.384;10.316;2022-11-23T07:35:18;13.20;;;8.00;;
21418;SDS011;10870;51.384;10.316;2022-11-23T07:37:20;13.77;;;8.20;;
21418;SDS011;10870;51.384;10.316;2022-11-23T07:39:21;17.38;;;8.70;;
21418;SDS011;10870;51.384;10.316;2022-11-23T07:41:23;16.92;;;8.55;;
21418;SDS011;10870;51.384;10.316;2022-11-23T07:43:26;22.13;;;9.60;;
21418;SDS011;10870;51.384;10.316;2022-11-23T07:45:28;24.40;;;10.20;;
21418;SDS011;10870;51.384;10.316;2022-11-23T07:47:29;23.13;;;12.20;;
21418;SDS011;10870;51.384;10.316;2022-11-23T07:49:31;27.40;;;10.85;;
21418;SDS011;10870;51.384;10.316;2022-11-23T07:51:32;23.67;;;9.38;;
21418;SDS011;10870;51.384;10.316;2022-11-23T07:53:34;20.77;;;9.70;;
21418;SDS011;10870;51.384;10.316;2022-11-23T07:55:35;14.77;;;8.27;;
21418;SDS011;10870;51.384;10.316;2022-11-23T07:57:37;15.50;;;9.75;;
21418;SDS011;10870;51.384;10.316;2022-11-23T07:59:38;20.55;;;8.70;;
21418;SDS011;10870;51.384;10.316;2022-11-23T08:01:39;16.90;;;7.93;;
21418;SDS011;10870;51.384;10.316;2022-11-23T08:03:41;17.35;;;8.45;;
21418;SDS011;10870;51.384;10.316;2022-11-23T08:05:42;13.65;;;7.97;;
21418;SDS011;10870;51.384;10.316;2022-11-23T08:07:43;18.33;;;8.30;;
21418;SDS011;10870;51.384;10.316;2022-11-23T08:09:45;14.10;;;7.57;;
21418;SDS011;10870;51.384;10.316;2022-11-23T08:11:46;9.88;;;7.05;;
21418;SDS011;10870;51.384;10.316;2022-11-23T08:13:48;19.67;;;7.97;;
21418;SDS011;10870;51.384;10.316;2022-11-23T08:15:49;15.15;;;7.60;;
21418;SDS011;10870;51.384;10.316;2022-11-23T08:17:58;15.18;;;8.30;;
21418;SDS011;10870;51.384;10.316;2022-11-23T08:19:59;18.02;;;8.40;;
21418;SDS011;10870;51.384;10.316;2022-11-23T08:22:00;18.80;;;8.02;;
21418;SDS011;10870;51.384;10.316;2022-11-23T08:24:02;14.18;;;8.45;;
21418;SDS011;10870;51.384;10.316;2022-11-23T08:26:03;14.48;;;7.28;;
21418;SDS011;10870;51.384;10.316;2022-11-23T08:28:05;20.90;;;8.20;;
21418;SDS011;10870;51.384;10.316;2022-11-23T08:30:06;20.02;;;8.02;;
21418;SDS011;10870;51.384;10.316;2022-11-23T08:32:08;12.75;;;6.45;;
21418;SDS011;10870;51.384;10.316;2022-11-23T08:34:09;13.43;;;7.82;;
21418;SDS011;10870;51.384;10.316;2022-11-23T08:36:10;16.13;;;7.03;;
21418;SDS011;10870;51.384;10.316;2022-11-23T08:38:12;13.13;;;7.13;;
21418;SDS011;10870;51.384;10.316;2022-11-23T08:40:13;13.63;;;7.05;;
21418;SDS011;10870;51.384;10.316;2022-11-23T08:42:17;15.32;;;8.05;;
21418;SDS011;10870;51.384;10.316;2022-11-23T08:44:18;22.25;;;7.82;;
21418;SDS011;10870;51.384;10.316;2022-11-23T08:46:19;18.60;;;9.50;;
21418;SDS011;10870;51.384;10.316;2022-11-23T08:48:21;15.80;;;8.50;;
21418;SDS011;10870;51.384;10.316;2022-11-23T08:50:22;13.25;;;7.53;;
21418;SDS011;10870;51.384;10.316;2022-11-23T08:52:24;14.02;;;6.93;;
21418;SDS011;10870;51.384;10.316;2022-11-23T08:54:26;13.35;;;6.55;;
21418;SDS011;10870;51.384;10.316;2022-11-23T08:56:27;8.93;;;5.95;;
21418;SDS011;10870;51.384;10.316;2022-11-23T08:58:28;14.88;;;7.05;;
21418;SDS011;10870;51.384;10.316;2022-11-23T09:00:30;15.43;;;6.82;;
21418;SDS011;10870;51.384;10.316;2022-11-23T09:02:31;14.80;;;7.22;;
21418;SDS011;10870;51.384;10.316;2022-11-23T09:04:33;15.63;;;6.38;;
21418;SDS011;10870;51.384;10.316;2022-11-23T09:06:34;17.45;;;7.18;;
21418;SDS011;10870;51.384;10.316;2022-11-23T09:08:35;17.17;;;7.10;;
21418;SDS011;10870;51.384;10.316;2022-11-23T09:10:37;11.90;;;6.28;;
21418;SDS011;10870;51.384;10.316;2022-11-23T09:12:38;15.57;;;6.97;;
21418;SDS011;10870;51.384;10.316;2022-11-23T09:14:39;14.00;;;6.82;;
21418;SDS011;10870;51.384;10.316;2022-11-23T09:16:41;14.13;;;7.07;;
21418;SDS011;10870;51.384;10.316;2022-11-23T09:18:42;17.02;;;6.65;;
21418;SDS011;10870;51.384;10.316;2022-11-23T09:20:44;14.00;;;6.65;;
21418;SDS011;10870;51.384;10.316;2022-11-23T09:22:51;11.93;;;6.43;;
21418;SDS011;10870;51.384;10.316;2022-11-23T09:24:53;11.88;;;5.90;;
21418;SDS011;10870;51.384;10.316;2022-11-23T09:26:54;15.75;;;7.47;;
21418;SDS011;10870;51.384;10.316;2022-11-23T09:28:56;14.88;;;7.00;;
21418;SDS011;10870;51.384;10.316;2022-11-23T09:31:00;10.88;;;6.30;;
21418;SDS011;10870;51.384;10.316;2022-11-23T09:33:02;14.38;;;6.50;;
21418;SDS011;10870;51.384;10.316;2022-11-23T09:35:03;21.92;;;6.68;;
21418;SDS011;10870;51.384;10.316;2022-11-23T09:37:05;18.83;;;5.97;;
21418;SDS011;10870;51.384;10.316;2022-11-23T09:39:06;15.02;;;5.80;;
21418;SDS011;10870;51.384;10.316;2022-11-23T09:43:46;17.95;;;6.30;;
21418;SDS011;10870;51.384;10.316;2022-11-23T09:45:51;11.65;;;5.45;;
21418;SDS011;10870;51.384;10.316;2022-11-23T09:52:23;19.60;;;7.32;;
21418;SDS011;10870;51.384;10.316;2022-11-23T09:54:32;12.60;;;5.70;;
21418;SDS011;10870;51.384;10.316;2022-11-23T09:56:36;13.95;;;5.57;;
21418;SDS011;10870;51.384;10.316;2022-11-23T09:58:38;8.88;;;6.25;;
21418;SDS011;10870;51.384;10.316;2022-11-23T10:00:47;10.55;;;5.70;;
21418;SDS011;10870;51.384;10.316;2022-11-23T10:02:51;11.10;;;5.50;;
21418;SDS011;10870;51.384;10.316;2022-11-23T10:04:52;11.52;;;5.63;;
21418;SDS011;10870;51.384;10.316;2022-11-23T10:06:59;10.18;;;5.80;;
21418;SDS011;10870;51.384;10.316;2022-11-23T10:11:20;12.88;;;5.03;;
21418;SDS011;10870;51.384;10.316;2022-11-23T10:15:31;11.68;;;5.28;;
21418;SDS011;10870;51.384;10.316;2022-11-23T10:22:04;12.02;;;4.88;;
21418;SDS011;10870;51.384;10.316;2022-11-23T10:26:11;12.68;;;5.20;;
21418;SDS011;10870;51.384;10.316;2022-11-23T10:28:15;9.40;;;4.55;;
21418;SDS011;10870;51.384;10.316;2022-11-23T10:30:18;13.35;;;4.78;;
21418;SDS011;10870;51.384;10.316;2022-11-23T10:36:33;12.43;;;4.38;;
21418;SDS011;10870;51.384;10.316;2022-11-23T10:38:36;12.98;;;4.55;;
21418;SDS011;10870;51.384;10.316;2022-11-23T10:40:38;12.38;;;4.38;;
21418;SDS011;10870;51.384;10.316;2022-11-23T10:42:45;11.45;;;4.47;;
21418;SDS011;10870;51.384;10.316;2022-11-23T10:44:48;9.77;;;4.20;;
21418;SDS011;10870;51.384;10.316;2022-11-23T10:46:50;10.38;;;4.07;;
21418;SDS011;10870;51.384;10.316;2022-11-23T10:48:51;8.93;;;4.80;;
21418;SDS011;10870;51.384;10.316;2022-11-23T10:50:53;10.68;;;4.20;;
21418;SDS011;10870;51.384;10.316;2022-11-23T10:53:00;9.68;;;3.92;;
21418;SDS011;10870;51.384;10.316;2022-11-23T10:55:04;15.15;;;4.57;;
21418;SDS011;10870;51.384;10.316;2022-11-23T10:59:33;16.77;;;4.75;;
21418;SDS011;10870;51.384;10.316;2022-11-23T11:01:35;16.83;;;4.50;;
21418;SDS011;10870;51.384;10.316;2022-11-23T11:03:38;15.38;;;5.00;;
21418;SDS011;10870;51.384;10.316;2022-11-23T11:05:47;6.70;;;3.75;;
21418;SDS011;10870;51.384;10.316;2022-11-23T11:07:49;9.80;;;4.07;;
21418;SDS011;10870;51.384;10.316;2022-11-23T11:09:55;13.10;;;4.78;;
21418;SDS011;10870;51.384;10.316;2022-11-23T11:11:57;10.80;;;4.72;;
21418;SDS011;10870;51.384;10.316;2022-11-23T11:16:15;11.82;;;4.38;;
21418;SDS011;10870;51.384;10.316;2022-11-23T11:18:18;11.40;;;4.97;;
21418;SDS011;10870;51.384;10.316;2022-11-23T11:20:32;11.93;;;4.97;;
21418;SDS011;10870;51.384;10.316;2022-11-23T11:22:34;15.27;;;5.20;;
21418;SDS011;10870;51.384;10.316;2022-11-23T11:24:42;15.65;;;5.40;;
21418;SDS011;10870;51.384;10.316;2022-11-23T11:26:51;7.53;;;4.47;;
21418;SDS011;10870;51.384;10.316;2022-11-23T11:28:53;9.00;;;4.93;;
21418;SDS011;10870;51.384;10.316;2022-11-23T11:33:16;13.23;;;4.43;;
21418;SDS011;10870;51.384;10.316;2022-11-23T11:35:26;15.35;;;4.47;;
21418;SDS011;10870;51.384;10.316;2022-11-23T11:39:41;10.18;;;4.55;;
21418;SDS011;10870;51.384;10.316;2022-11-23T11:41:44;11.70;;;4.00;;
21418;SDS011;10870;51.384;10.316;2022-11-23T11:45:47;9.52;;;3.65;;
21418;SDS011;10870;51.384;10.316;2022-11-23T11:47:58;10.02;;;3.45;;
21418;SDS011;10870;51.384;10.316;2022-11-23T11:50:05;11.27;;;3.58;;
21418;SDS011;10870;51.384;10.316;2022-11-23T11:52:20;11.23;;;3.60;;
21418;SDS011;10870;51.384;10.316;2022-11-23T11:56:33;21.80;;;5.68;;
21418;SDS011;10870;51.384;10.316;2022-11-23T11:58:36;9.07;;;3.72;;
21418;SDS011;10870;51.384;10.316;2022-11-23T12:00:38;9.40;;;4.15;;
21418;SDS011;10870;51.384;10.316;2022-11-23T12:07:13;13.07;;;3.63;;
21418;SDS011;10870;51.384;10.316;2022-11-23T12:09:21;9.13;;;2.92;;
21418;SDS011;10870;51.384;10.316;2022-11-23T12:11:23;8.75;;;3.22;;
21418;SDS011;10870;51.384;10.316;2022-11-23T12:13:26;14.90;;;3.42;;
21418;SDS011;10870;51.384;10.316;2022-11-23T12:15:32;6.43;;;2.53;;
21418;SDS011;10870;51.384;10.316;2022-11-23T12:34:50;14.63;;;4.78;;
21418;SDS011;10870;51.384;10.316;2022-11-23T12:47:32;11.80;;;3.67;;
21418;SDS011;10870;51.384;10.316;2022-11-23T12:49:40;8.75;;;2.83;;
21418;SDS011;10870;51.384;10.316;2022-11-23T12:51:46;10.00;;;3.67;;
21418;SDS011;10870;51.384;10.316;2022-11-23T12:58:28;8.98;;;3.05;;
21418;SDS011;10870;51.384;10.316;2022-11-23T13:00:38;16.20;;;2.60;;
21418;SDS011;10870;51.384;10.316;2022-11-23T13:05:07;8.90;;;3.20;;
21418;SDS011;10870;51.384;10.316;2022-11-23T13:17:54;6.32;;;2.90;;
21418;SDS011;10870;51.384;10.316;2022-11-23T13:21:58;8.80;;;3.60;;
21418;SDS011;10870;51.384;10.316;2022-11-23T13:24:01;11.90;;;3.67;;
21418;SDS011;10870;51.384;10.316;2022-11-23T13:28:29;8.80;;;2.53;;
21418;SDS011;10870;51.384;10.316;2022-11-23T13:30:46;5.43;;;2.28;;
21418;SDS011;10870;51.384;10.316;2022-11-23T13:37:18;11.40;;;2.50;;
21418;SDS011;10870;51.384;10.316;2022-11-23T13:41:55;12.18;;;2.72;;
21418;SDS011;10870;51.384;10.316;2022-11-23T13:43:57;8.93;;;2.90;;
21418;SDS011;10870;51.384;10.316;2022-11-23T13:48:18;11.27;;;2.90;;